createdAt,value
2019-01-24T02:00:51.164Z,5.15
2019-01-24T02:15:51.086Z,5.38
2019-01-24T02:30:51.029Z,5.41
2019-01-24T02:45:51.011Z,5.36
2019-01-24T03:00:51.008Z,5.45
2019-01-24T03:15:52.952Z,5.65
2019-01-24T03:30:51.253Z,5.81
2019-01-24T03:45:51.220Z,5.96
2019-01-24T04:00:51.173Z,6.02
2019-01-24T04:15:51.093Z,6.03
2019-01-24T04:30:51.197Z,5.88
2019-01-24T04:45:50.959Z,5.76
2019-01-24T05:00:51.448Z,5.71
2019-01-24T05:15:51.415Z,5.58
2019-01-24T05:30:51.389Z,5.34
2019-01-24T05:45:50.625Z,5.34
2019-01-24T06:00:51.087Z,5.42
2019-01-24T06:15:50.483Z,5.64
2019-01-24T06:30:50.395Z,5.80
2019-01-24T06:45:50.836Z,5.94
2019-01-24T07:00:50.812Z,6.27
2019-01-24T07:15:50.795Z,6.78
2019-01-24T07:30:50.691Z,6.99
2019-01-24T07:45:51.056Z,6.86
2019-01-24T08:00:50.896Z,6.81
2019-01-24T08:15:50.811Z,6.78
2019-01-24T08:30:50.730Z,6.95
2019-01-24T08:45:50.272Z,7.12
2019-01-24T09:00:51.601Z,7.78
2019-01-24T09:15:50.744Z,8.34
2019-01-24T09:30:50.756Z,9.02
2019-01-24T09:45:51.190Z,9.40
2019-01-24T10:00:51.256Z,9.74
2019-01-24T10:15:51.328Z,9.80
2019-01-24T10:30:51.677Z,9.85
2019-01-24T10:45:51.651Z,9.93
2019-01-24T11:00:52.954Z,10.08
2019-01-24T11:15:51.203Z,10.62
2019-01-24T11:30:50.987Z,11.05
2019-01-24T11:45:50.736Z,11.13
2019-01-24T12:00:53.868Z,10.98
2019-01-24T12:15:51.568Z,10.77
2019-01-24T12:30:52.476Z,10.05
2019-01-24T12:45:50.827Z,9.15
2019-01-24T13:00:50.756Z,8.27
2019-01-24T13:15:50.728Z,7.61
2019-01-24T13:30:52.235Z,7.00
2019-01-24T13:45:51.106Z,6.69
2019-01-24T14:00:50.946Z,6.55
2019-01-24T14:15:50.844Z,6.21
2019-01-24T14:30:51.164Z,5.83
2019-01-24T14:45:51.339Z,5.61
2019-01-24T15:00:55.604Z,5.40
2019-01-24T15:15:56.976Z,5.18
2019-01-24T15:30:51.007Z,5.10
2019-01-24T15:45:51.452Z,5.09
2019-01-24T16:00:52.369Z,5.12
2019-01-24T16:15:52.028Z,5.10
2019-01-24T16:30:50.869Z,5.01
2019-01-24T16:45:51.772Z,4.73
2019-01-24T17:00:57.628Z,4.53
2019-01-24T17:15:51.508Z,4.32
2019-01-24T17:30:53.356Z,4.19
2019-01-24T17:45:51.979Z,4.11
2019-01-24T18:00:53.226Z,4.12
2019-01-24T18:15:51.191Z,4.15
2019-01-24T18:30:52.040Z,4.13
2019-01-24T18:45:59.266Z,4.17
2019-01-24T19:00:51.148Z,4.25
2019-01-24T19:15:51.243Z,4.32
2019-01-24T19:30:53.012Z,4.25
2019-01-24T19:45:53.984Z,4.18
2019-01-24T20:00:52.307Z,4.13
2019-01-24T20:15:51.570Z,4.06
2019-01-24T20:30:52.825Z,4.03
2019-01-24T20:45:51.560Z,4.01
2019-01-24T21:00:52.055Z,4.03
2019-01-24T21:15:53.550Z,4.00
2019-01-24T21:30:51.570Z,4.05
2019-01-24T21:45:50.944Z,4.06
2019-01-24T22:00:51.919Z,4.14
2019-01-24T22:15:51.876Z,4.13
2019-01-24T22:30:59.936Z,4.13
2019-01-24T22:45:50.883Z,4.06
2019-01-24T23:15:50.716Z,4.04
2019-01-24T23:30:51.673Z,4.07
2019-01-24T23:45:53.857Z,4.04
